Time;durP1;ratioP1;P1;durP2;ratioP2;P2;SDS_P1;SDS_P2;PMS_P1;PMS_P2;Temp;Humidity;BMP_temperature;BMP_pressure;BME280_temperature;BME280_humidity;BME280_pressure;Samples;Min_cycle;Max_cycle;Signal;HPM_P1;HPM_P2
2023/05/20 00:00:21;;;;;;;4.78;2.17;;;;;;;16.72;45.69;100837.53;4130284;28;20420;-65
2023/05/20 00:02:24;;;;;;;3.38;2.08;;;;;;;16.65;45.65;100837.59;4130075;28;20046;-64
2023/05/20 00:04:27;;;;;;;10.15;2.65;;;;;;;16.65;45.74;100834.97;4129065;28;20046;-64
2023/05/20 00:06:31;;;;;;;4.25;2.58;;;;;;;16.61;45.94;100834.09;4148711;28;20095;-64
2023/05/20 00:08:34;;;;;;;3.58;2.20;;;;;;;16.55;46.02;100836.75;4135202;28;20038;-64
2023/05/20 00:10:36;;;;;;;5.57;2.67;;;;;;;16.51;46.13;100830.63;4130420;28;20058;-65
2023/05/20 00:12:39;;;;;;;3.95;2.20;;;;;;;16.43;46.34;100842.91;4128359;28;20141;-65
2023/05/20 00:14:42;;;;;;;4.25;2.13;;;;;;;16.39;46.77;100833.31;4145819;28;20407;-65
2023/05/20 00:16:46;;;;;;;5.45;2.67;;;;;;;16.55;46.47;100826.25;4147047;28;20068;-65
2023/05/20 00:18:49;;;;;;;4.88;2.40;;;;;;;16.45;46.19;100828.03;4130138;28;20043;-64
2023/05/20 00:20:53;;;;;;;8.50;2.33;;;;;;;16.37;46.87;100825.44;4144939;28;20459;-65
2023/05/20 00:22:56;;;;;;;5.63;2.55;;;;;;;16.42;46.55;100816.69;4145435;28;20050;-64
2023/05/20 00:24:59;;;;;;;6.35;2.78;;;;;;;16.33;46.54;100823.69;4133322;28;20500;-64
2023/05/20 00:27:02;;;;;;;4.57;2.55;;;;;;;16.29;46.95;100827.22;4130023;28;20476;-64
2023/05/20 00:29:05;;;;;;;6.05;2.80;;;;;;;16.20;46.77;100827.25;4128729;28;20053;-65
2023/05/20 00:31:08;;;;;;;7.47;2.60;;;;;;;16.21;47.44;100823.75;4135176;28;20050;-65
2023/05/20 00:33:12;;;;;;;6.03;2.50;;;;;;;16.18;47.76;100827.25;4143875;28;20119;-64
2023/05/20 00:35:15;;;;;;;5.43;3.00;;;;;;;16.04;48.15;100827.28;4129622;28;20093;-64
2023/05/20 00:37:18;;;;;;;4.68;2.30;;;;;;;16.04;47.92;100822.03;4131288;28;20038;-65
2023/05/20 00:39:20;;;;;;;8.50;2.42;;;;;;;16.08;47.58;100824.66;4147362;28;20030;-64
2023/05/20 00:41:23;;;;;;;6.40;2.50;;;;;;;16.08;48.36;100822.03;4143419;28;20080;-65
2023/05/20 00:43:26;;;;;;;10.93;2.88;;;;;;;15.97;47.92;100815.06;4133078;28;20479;-64
2023/05/20 00:45:29;;;;;;;4.22;2.45;;;;;;;15.88;48.78;100815.09;4133329;28;20062;-64
2023/05/20 00:47:33;;;;;;;5.45;2.70;;;;;;;15.97;48.36;100819.44;4128767;28;20129;-65
2023/05/20 00:49:38;;;;;;;5.43;2.83;;;;;;;15.97;48.18;100816.81;4144059;28;20566;-64
2023/05/20 00:51:41;;;;;;;6.10;2.80;;;;;;;15.88;48.35;100818.56;4136742;28;20062;-64
2023/05/20 00:53:45;;;;;;;4.45;2.80;;;;;;;15.81;48.52;100813.34;4133241;28;20037;-64
2023/05/20 00:55:48;;;;;;;4.63;2.90;;;;;;;15.76;49.34;100818.56;4134987;28;20038;-64
2023/05/20 00:57:53;;;;;;;4.10;2.88;;;;;;;15.76;49.14;100810.72;4147798;28;20390;-64
2023/05/20 00:59:56;;;;;;;4.43;2.70;;;;;;;15.71;49.15;100808.09;4130975;28;20038;-65
2023/05/20 01:02:00;;;;;;;8.48;3.22;;;;;;;15.70;49.33;100815.97;4143800;28;20121;-64
2023/05/20 01:04:03;;;;;;;8.85;2.55;;;;;;;15.64;49.60;100816.84;4135626;28;20142;-65
2023/05/20 01:06:08;;;;;;;4.97;2.83;;;;;;;15.68;49.24;100815.97;4128076;28;20116;-64
2023/05/20 01:08:11;;;;;;;5.63;2.35;;;;;;;15.55;50.24;100814.25;4143292;28;20069;-64
2023/05/20 01:10:14;;;;;;;5.07;2.67;;;;;;;15.54;49.68;100818.59;4136581;28;20062;-64
2023/05/20 01:12:22;;;;;;;5.13;3.15;;;;;;;15.61;50.10;100815.97;4136038;28;20042;-64
2023/05/20 01:14:27;;;;;;;6.40;3.03;;;;;;;15.53;50.10;100824.69;4127746;28;20161;-64
2023/05/20 01:16:32;;;;;;;6.85;3.00;;;;;;;15.46;50.60;100816.84;4147184;28;20038;-65
2023/05/20 01:18:36;;;;;;;5.15;3.00;;;;;;;15.41;50.37;100819.47;4136277;28;20562;-65
2023/05/20 01:20:39;;;;;;;8.43;2.78;;;;;;;15.43;50.41;100816.84;4127949;28;20073;-64
2023/05/20 01:22:48;;;;;;;6.15;2.80;;;;;;;15.40;50.58;100816.84;4131556;28;20034;-64
2023/05/20 01:24:52;;;;;;;11.48;2.83;;;;;;;15.39;49.98;100822.97;4132552;28;20039;-64
2023/05/20 01:26:57;;;;;;;9.65;2.58;;;;;;;15.41;50.40;100821.22;4145657;28;20046;-64
2023/05/20 01:29:03;;;;;;;;;;;;;;;15.29;51.18;100825.59;4130578;28;20038;-65
2023/05/20 01:31:10;;;;;;;5.70;2.58;;;;;;;15.36;50.42;100822.09;4141037;28;19925;-64
2023/05/20 01:33:16;;;;;;;6.47;2.78;;;;;;;15.32;50.75;100819.47;4134209;28;20512;-64
2023/05/20 01:35:20;;;;;;;;;;;;;;;15.23;50.68;100822.97;4128767;28;20250;-64
2023/05/20 01:37:27;;;;;;;6.93;3.50;;;;;;;15.29;50.56;100824.72;4127979;28;19929;-64
2023/05/20 01:39:34;;;;;;;5.20;2.70;;;;;;;15.20;51.44;100820.34;4136848;28;20066;-64
2023/05/20 01:41:37;;;;;;;3.38;2.08;;;;;;;15.11;51.27;100830.78;4143119;28;20117;-64
2023/05/20 01:43:41;;;;;;;8.05;2.70;;;;;;;15.09;51.37;100838.66;4143104;28;20137;-64
2023/05/20 01:45:44;;;;;;;6.28;2.67;;;;;;;15.23;50.80;100833.44;4144030;28;20029;-64
2023/05/20 01:47:48;;;;;;;7.18;3.00;;;;;;;15.12;52.00;100837.78;4143599;28;20120;-64
2023/05/20 01:49:52;;;;;;;5.22;2.63;;;;;;;15.09;51.61;100827.31;4139360;28;20611;-64
2023/05/20 01:51:56;;;;;;;7.05;3.03;;;;;;;15.11;52.09;100821.22;4126766;28;20100;-64
2023/05/20 01:53:59;;;;;;;4.25;2.70;;;;;;;15.09;52.18;100822.06;4127055;28;20129;-64
2023/05/20 01:56:03;;;;;;;6.40;3.13;;;;;;;15.13;51.38;100823.84;4129005;28;20487;-65
2023/05/20 01:58:06;;;;;;;8.57;2.90;;;;;;;15.05;52.07;100815.09;4129483;28;20026;-64
2023/05/20 02:00:09;;;;;;;6.15;2.83;;;;;;;15.06;52.12;100825.56;4146767;28;20499;-64
2023/05/20 02:02:15;;;;;;;4.30;2.60;;;;;;;15.01;51.92;100816.84;4130474;28;20051;-64
2023/05/20 02:04:18;;;;;;;5.93;2.85;;;;;;;15.00;51.93;100810.69;4129704;28;20035;-64
2023/05/20 02:06:21;;;;;;;6.30;2.78;;;;;;;15.05;52.14;100818.56;4142767;28;20129;-64
2023/05/20 02:08:24;;;;;;;6.00;3.28;;;;;;;15.02;52.11;100823.78;4125413;28;20050;-64
2023/05/20 02:10:27;;;;;;;7.95;3.20;;;;;;;14.98;52.35;100817.69;4130803;28;20065;-64
2023/05/20 02:12:32;;;;;;;5.97;2.60;;;;;;;14.93;52.16;100816.78;4126663;28;20137;-64
2023/05/20 02:14:35;;;;;;;5.65;3.03;;;;;;;14.91;52.17;100812.41;4129833;28;20042;-64
2023/05/20 02:16:37;;;;;;;6.72;3.10;;;;;;;14.88;52.50;100808.06;4142483;28;20030;-64
2023/05/20 02:18:41;;;;;;;7.60;3.35;;;;;;;14.88;53.01;100807.19;4143384;28;20042;-64
2023/05/20 02:20:44;;;;;;;6.00;2.97;;;;;;;14.76;53.49;100808.03;4142100;28;20111;-64
2023/05/20 02:22:47;;;;;;;7.35;2.80;;;;;;;14.77;52.89;100799.31;4141711;28;20092;-64
2023/05/20 02:24:50;;;;;;;7.20;2.95;;;;;;;14.71;53.45;100799.31;4125614;28;20034;-64
2023/05/20 02:26:54;;;;;;;4.40;2.60;;;;;;;14.61;52.85;100808.84;4125172;28;20054;-64
2023/05/20 02:28:58;;;;;;;4.30;2.65;;;;;;;14.53;53.75;100800.06;4142000;28;20119;-64
2023/05/20 02:31:01;;;;;;;8.23;3.15;;;;;;;14.55;53.78;100804.44;4129538;28;20054;-64
2023/05/20 02:33:07;;;;;;;;;;;;;;;14.48;54.08;100798.34;4126212;28;20040;-64
2023/05/20 02:35:11;;;;;;;4.03;2.47;;;;;;;14.47;53.90;100796.59;4142639;28;20024;-64
2023/05/20 02:37:14;;;;;;;4.82;2.67;;;;;;;14.44;53.99;100793.06;4126616;28;20480;-64
2023/05/20 02:39:17;;;;;;;5.95;2.80;;;;;;;14.46;54.76;100796.59;4143313;28;20145;-64
2023/05/20 02:41:20;;;;;;;4.70;3.20;;;;;;;14.36;54.07;100787.81;4141746;28;20530;-64
2023/05/20 02:43:23;;;;;;;6.45;3.13;;;;;;;14.38;54.11;100790.44;4141430;28;20532;-65
2023/05/20 02:45:27;;;;;;;5.20;3.10;;;;;;;14.34;54.56;100786.94;4130484;28;20077;-64
2023/05/20 02:47:30;;;;;;;5.75;2.63;;;;;;;14.36;54.25;100790.44;4109011;28;20175;-64
2023/05/20 02:49:33;;;;;;;6.18;2.97;;;;;;;14.34;54.58;100786.06;4141942;28;20420;-64
2023/05/20 02:51:37;;;;;;;9.20;3.57;;;;;;;14.27;54.98;100787.78;4125105;28;20064;-64
2023/05/20 02:53:40;;;;;;;10.15;3.35;;;;;;;14.28;55.02;100779.94;4126329;28;20038;-64
2023/05/20 02:55:43;;;;;;;5.82;3.20;;;;;;;14.28;54.76;100779.06;4141858;28;20062;-64
2023/05/20 02:57:46;;;;;;;5.82;3.47;;;;;;;14.18;55.61;100778.16;4130236;28;20045;-64
2023/05/20 02:59:49;;;;;;;5.75;3.05;;;;;;;14.18;55.76;100778.16;4144471;28;20041;-64
2023/05/20 03:01:54;;;;;;;6.75;3.30;;;;;;;14.11;55.11;100781.63;4131276;28;20456;-64
2023/05/20 03:03:57;;;;;;;6.35;3.03;;;;;;;14.07;56.07;100777.22;4143349;28;20052;-64
2023/05/20 03:06:00;;;;;;;7.65;3.42;;;;;;;14.06;55.42;100776.38;4144515;28;20038;-65
2023/05/20 03:08:08;;;;;;;8.93;3.40;;;;;;;14.00;55.70;100776.31;4128875;28;20037;-64
2023/05/20 03:10:11;;;;;;;6.82;3.42;;;;;;;14.00;56.19;100775.44;4135452;28;20364;-64
2023/05/20 03:12:14;;;;;;;5.45;3.22;;;;;;;13.94;56.38;100785.03;4144921;28;20121;-64
2023/05/20 03:14:17;;;;;;;4.75;3.10;;;;;;;13.91;56.26;100779.75;4145267;28;20052;-64
2023/05/20 03:16:20;;;;;;;6.80;3.17;;;;;;;13.87;56.51;100774.50;4136054;28;20510;-64
2023/05/20 03:18:24;;;;;;;10.93;3.40;;;;;;;13.84;56.79;100785.81;4144905;28;20056;-64
2023/05/20 03:20:28;;;;;;;4.25;3.15;;;;;;;13.79;57.02;100784.91;4138931;28;20044;-64
2023/05/20 03:22:30;;;;;;;5.97;3.83;;;;;;;13.81;56.86;100783.19;4144948;28;20046;-64
2023/05/20 03:24:34;;;;;;;6.85;3.90;;;;;;;13.84;56.53;100777.97;4143811;28;20226;-64
2023/05/20 03:26:41;;;;;;;7.03;3.72;;;;;;;13.89;56.72;100776.28;4127143;28;20045;-64
2023/05/20 03:28:44;;;;;;;5.13;3.40;;;;;;;13.91;56.69;100776.28;4130452;28;20097;-64
2023/05/20 03:30:47;;;;;;;4.65;3.60;;;;;;;13.95;56.68;100778.03;4130890;28;20088;-64
2023/05/20 03:32:51;;;;;;;6.63;4.00;;;;;;;13.93;56.91;100777.16;4124443;28;20046;-66
2023/05/20 03:34:56;;;;;;;7.88;3.35;;;;;;;13.86;57.43;100771.03;4130577;28;20427;-64
2023/05/20 03:37:00;;;;;;;8.95;3.30;;;;;;;13.89;56.84;100780.63;4132327;28;20717;-64
2023/05/20 03:39:03;;;;;;;5.28;3.13;;;;;;;13.83;57.38;100783.19;4127927;28;20045;-64
2023/05/20 03:41:07;;;;;;;6.53;3.03;;;;;;;13.90;57.61;100787.59;4134055;28;20042;-64
2023/05/20 03:43:10;;;;;;;7.68;2.97;;;;;;;13.87;57.05;100783.25;4143174;28;20038;-64
2023/05/20 03:45:13;;;;;;;6.60;3.97;;;;;;;13.82;57.20;100784.06;4143081;28;20038;-64
2023/05/20 03:47:23;;;;;;;5.22;3.13;;;;;;;13.86;57.97;100785.84;4138826;28;20046;-64
2023/05/20 03:49:26;;;;;;;5.43;3.45;;;;;;;13.88;57.77;100787.56;4136485;28;20038;-65
2023/05/20 03:51:31;;;;;;;7.80;3.55;;;;;;;13.81;57.97;100783.19;4154610;28;20068;-64
2023/05/20 03:53:40;;;;;;;5.38;3.13;;;;;;;13.91;57.28;100782.38;4126837;28;20038;-65
2023/05/20 03:55:43;;;;;;;6.13;3.60;;;;;;;13.91;57.53;100779.75;4152712;28;20045;-64
2023/05/20 03:57:47;;;;;;;5.20;3.20;;;;;;;13.93;57.94;100779.75;4143731;28;20052;-64
2023/05/20 03:59:51;;;;;;;5.68;3.30;;;;;;;13.85;57.72;100779.72;4119933;28;20034;-63
2023/05/20 04:01:55;;;;;;;6.18;3.83;;;;;;;13.95;58.22;100791.13;4143328;28;20104;-64
2023/05/20 04:03:58;;;;;;;9.43;3.85;;;;;;;13.96;57.99;100783.28;4128842;28;20482;-64
2023/05/20 04:06:01;;;;;;;5.72;3.50;;;;;;;14.00;57.66;100783.28;4141194;28;20046;-64
2023/05/20 04:08:08;;;;;;;9.88;3.95;;;;;;;14.04;57.39;100783.31;4153220;28;20046;-64
2023/05/20 04:10:11;;;;;;;5.80;2.92;;;;;;;13.93;57.52;100790.22;4132147;28;20050;-64
2023/05/20 04:12:14;;;;;;;7.72;3.88;;;;;;;13.89;58.23;100784.09;4148086;28;20488;-64
2023/05/20 04:14:17;;;;;;;9.05;3.83;;;;;;;13.86;58.37;100781.47;4135734;28;20037;-65
2023/05/20 04:16:21;;;;;;;10.38;4.28;;;;;;;13.85;58.29;100784.09;4143804;28;20069;-65
2023/05/20 04:18:24;;;;;;;6.43;3.30;;;;;;;13.90;58.65;100791.09;4131177;28;20057;-65
2023/05/20 04:20:27;;;;;;;8.68;4.03;;;;;;;13.90;58.25;100793.72;4132636;28;20034;-65
2023/05/20 04:22:32;;;;;;;6.05;3.80;;;;;;;13.96;58.79;100795.50;4150872;28;20069;-65
2023/05/20 04:24:36;;;;;;;7.35;3.85;;;;;;;13.96;58.18;100792.88;4144487;28;20100;-65
2023/05/20 04:26:39;;;;;;;;;;;;;;;13.91;58.51;100790.22;4138609;28;20049;-64
2023/05/20 04:28:42;;;;;;;7.82;3.78;;;;;;;13.93;58.27;100792.81;4133507;28;20021;-65
2023/05/20 04:30:45;;;;;;;9.13;3.80;;;;;;;13.86;58.62;100791.94;4134241;28;20042;-65
2023/05/20 04:32:50;;;;;;;10.98;4.30;;;;;;;13.75;58.90;100788.38;4143833;28;20132;-65
2023/05/20 04:34:54;;;;;;;11.82;3.80;;;;;;;13.81;59.63;100791.00;4129797;28;20054;-65
2023/05/20 04:36:59;;;;;;;9.93;3.83;;;;;;;13.91;59.17;100790.22;4134250;28;20037;-65
2023/05/20 04:39:02;;;;;;;5.70;3.33;;;;;;;13.90;58.83;100787.59;4134689;28;20046;-64
2023/05/20 04:41:06;;;;;;;5.00;3.67;;;;;;;13.94;59.00;100782.41;4144751;28;20037;-65
2023/05/20 04:43:09;;;;;;;8.57;4.07;;;;;;;13.91;59.54;100778.88;4117480;28;20501;-65
2023/05/20 04:45:13;;;;;;;6.55;3.45;;;;;;;13.91;58.92;100787.59;4119100;28;20054;-65
2023/05/20 04:47:18;;;;;;;6.10;3.85;;;;;;;13.87;59.30;100780.63;4142330;28;20034;-65
2023/05/20 04:49:21;;;;;;;7.13;3.95;;;;;;;13.87;59.36;100784.97;4144513;28;20065;-65
2023/05/20 04:51:24;;;;;;;8.40;4.00;;;;;;;13.88;59.42;100782.34;4116708;28;20085;-64
2023/05/20 04:53:29;;;;;;;10.23;4.07;;;;;;;13.93;59.33;100788.50;4119750;28;20137;-65
2023/05/20 04:55:32;;;;;;;9.98;4.53;;;;;;;14.08;59.10;100784.22;4136984;28;20062;-64
2023/05/20 04:57:40;;;;;;;6.65;4.32;;;;;;;14.05;59.12;100781.59;4114451;28;20461;-66
2023/05/20 04:59:44;;;;;;;6.88;4.55;;;;;;;14.00;59.97;100775.44;4135042;28;20711;-64
2023/05/20 05:01:47;;;;;;;6.22;3.92;;;;;;;14.09;59.57;100778.09;4143708;28;20042;-64
2023/05/20 05:03:50;;;;;;;7.75;4.20;;;;;;;14.03;59.67;100780.69;4127320;28;20066;-65
2023/05/20 05:05:56;;;;;;;6.93;4.05;;;;;;;14.02;59.86;100781.53;4135743;28;20163;-65
2023/05/20 05:07:58;;;;;;;8.90;4.50;;;;;;;14.05;59.34;100776.38;4150457;28;20048;-65
2023/05/20 05:10:01;;;;;;;10.25;4.32;;;;;;;14.14;58.73;100774.66;4143741;28;20132;-64
2023/05/20 05:12:06;;;;;;;10.98;4.30;;;;;;;14.07;59.29;100764.16;4116017;28;20437;-64
2023/05/20 05:14:11;;;;;;;8.88;4.13;;;;;;;14.03;59.45;100770.22;4134912;28;20039;-64
2023/05/20 05:16:14;;;;;;;5.80;3.90;;;;;;;14.07;59.25;100765.03;4132728;28;20440;-64
2023/05/20 05:18:18;;;;;;;8.02;3.95;;;;;;;14.08;59.25;100777.22;4132405;28;20045;-65
2023/05/20 05:20:21;;;;;;;8.13;4.20;;;;;;;14.15;59.53;100759.84;4142914;28;20038;-65
2023/05/20 05:22:24;;;;;;;7.28;4.00;;;;;;;14.15;59.21;100757.22;4125611;28;20112;-65
2023/05/20 05:24:26;;;;;;;10.48;4.05;;;;;;;14.21;59.66;100761.63;4125266;28;20074;-64
2023/05/20 05:26:29;;;;;;;8.32;3.95;;;;;;;14.24;59.44;100759.88;4131695;28;20508;-65
2023/05/20 05:28:32;;;;;;;6.75;3.63;;;;;;;14.23;60.16;100762.50;4150449;28;20046;-65
2023/05/20 05:30:37;;;;;;;10.18;4.35;;;;;;;14.31;59.84;100752.94;4140496;28;20034;-65
2023/05/20 05:32:40;;;;;;;8.00;4.05;;;;;;;14.27;59.92;100757.28;4141861;28;20048;-65
2023/05/20 05:34:44;;;;;;;11.32;3.90;;;;;;;14.22;59.83;100753.78;4138392;28;20116;-65
2023/05/20 05:36:46;;;;;;;9.80;4.13;;;;;;;14.21;59.70;100753.78;4142981;28;20041;-65
2023/05/20 05:38:49;;;;;;;7.22;4.13;;;;;;;14.23;60.10;100752.03;4151792;22;20042;-63
2023/05/20 05:40:53;;;;;;;8.75;4.55;;;;;;;14.24;59.75;100751.16;4128260;28;20039;-63
2023/05/20 05:42:56;;;;;;;9.30;4.25;;;;;;;14.24;59.51;100743.31;4142113;28;20117;-62
2023/05/20 05:45:00;;;;;;;15.10;4.10;;;;;;;14.30;59.90;100740.72;4142929;28;20045;-62
2023/05/20 05:47:07;;;;;;;9.07;4.78;;;;;;;14.40;59.74;100739.03;4142306;28;20379;-63
2023/05/20 05:49:11;;;;;;;5.25;3.92;;;;;;;14.43;59.53;100739.03;4142471;28;20136;-63
2023/05/20 05:51:13;;;;;;;7.28;4.72;;;;;;;14.46;59.81;100732.03;4127240;28;20042;-63
2023/05/20 05:53:16;;;;;;;7.65;4.50;;;;;;;14.61;59.11;100736.47;4139090;28;20066;-62
2023/05/20 05:55:23;;;;;;;7.15;4.13;;;;;;;14.65;59.11;100740.84;4127022;28;20471;-63
2023/05/20 05:57:27;;;;;;;6.97;3.97;;;;;;;14.70;59.22;100738.22;4124799;28;20057;-62
2023/05/20 05:59:30;;;;;;;;;;;;;;;14.74;59.39;100739.13;4125199;28;20046;-63
2023/05/20 06:01:33;;;;;;;9.48;4.57;;;;;;;14.78;59.61;100735.66;4142777;28;19949;-63
2023/05/20 06:03:37;;;;;;;12.38;4.57;;;;;;;14.92;58.99;100739.16;4141170;28;20072;-63
2023/05/20 06:05:44;;;;;;;9.43;4.00;;;;;;;15.04;59.10;100729.53;4126794;28;20377;-63
2023/05/20 06:07:47;;;;;;;9.43;4.80;;;;;;;15.05;59.09;100726.06;4127487;28;20446;-63
2023/05/20 06:09:50;;;;;;;11.52;5.35;;;;;;;15.23;58.87;100728.69;4127369;28;20125;-63
2023/05/20 06:11:53;;;;;;;7.15;5.18;;;;;;;15.25;58.42;100740.00;4125689;28;20065;-63
2023/05/20 06:13:57;;;;;;;12.05;5.50;;;;;;;15.25;58.90;100729.53;4139211;28;20101;-63
2023/05/20 06:16:00;;;;;;;7.22;4.80;;;;;;;15.25;58.57;100721.69;4124909;28;20038;-63
2023/05/20 06:18:03;;;;;;;11.80;5.85;;;;;;;15.27;58.50;100730.41;4109906;28;20602;-63
2023/05/20 06:20:09;;;;;;;11.07;6.70;;;;;;;15.38;58.18;100730.41;4141908;28;20038;-63
2023/05/20 06:22:12;;;;;;;11.15;6.93;;;;;;;15.41;58.33;100727.78;4126375;28;20092;-63
2023/05/20 06:24:15;;;;;;;16.95;6.55;;;;;;;15.45;58.80;100731.25;4109274;28;20070;-63
2023/05/20 06:26:18;;;;;;;6.78;4.65;;;;;;;15.47;58.72;100725.13;4126268;28;20066;-63
2023/05/20 06:28:21;;;;;;;7.10;4.38;;;;;;;15.54;58.18;100731.25;4127498;28;20144;-63
2023/05/20 06:30:24;;;;;;;7.22;4.72;;;;;;;15.55;58.31;100727.75;4140034;28;20042;-63
2023/05/20 06:32:27;;;;;;;7.85;4.43;;;;;;;15.42;58.74;100726.00;4127388;28;20113;-63
2023/05/20 06:34:31;;;;;;;;;;;;;;;15.45;58.58;100724.28;4127616;28;20149;-63
2023/05/20 06:36:36;;;;;;;7.78;4.45;;;;;;;15.56;58.74;100715.53;4125606;28;20201;-63
2023/05/20 06:38:39;;;;;;;8.65;5.07;;;;;;;15.47;58.18;100721.66;4129869;28;20074;-63
2023/05/20 06:40:42;;;;;;;9.50;4.68;;;;;;;15.50;58.63;100712.03;4142256;28;20033;-63
2023/05/20 06:42:45;;;;;;;7.93;4.60;;;;;;;15.56;58.73;100723.38;4144439;28;20041;-63
2023/05/20 06:44:48;;;;;;;8.20;4.20;;;;;;;15.67;58.39;100721.63;4145125;28;20038;-63
2023/05/20 06:46:56;;;;;;;11.23;5.18;;;;;;;15.69;57.88;100731.19;4145293;28;20092;-63
2023/05/20 06:48:59;;;;;;;10.07;5.30;;;;;;;15.67;58.43;100726.88;4127041;28;20113;-63
2023/05/20 06:51:02;;;;;;;7.85;5.00;;;;;;;15.79;58.03;100721.59;4112486;28;20045;-63
2023/05/20 06:53:07;;;;;;;11.65;4.95;;;;;;;15.79;58.52;100716.34;4129009;28;20139;-62
2023/05/20 06:55:10;;;;;;;;;;;;;;;15.85;58.42;100710.22;4129518;28;20057;-62
2023/05/20 06:57:14;;;;;;;7.28;4.75;;;;;;;16.08;57.82;100711.88;4144159;28;20372;-63
2023/05/20 06:59:17;;;;;;;8.23;5.03;;;;;;;16.38;57.26;100706.50;4145285;28;20069;-63
2023/05/20 07:01:20;;;;;;;8.73;4.82;;;;;;;16.62;56.30;100701.97;4130023;28;20104;-63
2023/05/20 07:03:23;;;;;;;8.10;4.63;;;;;;;16.84;56.10;100704.44;4112648;28;20082;-63
2023/05/20 07:05:27;;;;;;;7.65;4.18;;;;;;;16.95;55.69;100699.97;4128699;28;20043;-63
2023/05/20 07:07:30;;;;;;;7.57;4.57;;;;;;;17.27;55.36;100693.56;4142403;28;20080;-63
2023/05/20 07:09:35;;;;;;;5.78;4.60;;;;;;;17.37;54.77;100694.38;4128832;28;20046;-63
2023/05/20 07:11:39;;;;;;;13.98;5.90;;;;;;;17.36;55.04;100695.25;4123047;28;20398;-63
2023/05/20 07:13:42;;;;;;;8.20;5.53;;;;;;;17.18;55.33;100698.94;4125305;28;20042;-63
2023/05/20 07:15:46;;;;;;;9.50;5.53;;;;;;;17.37;55.18;100689.09;4132702;28;20038;-63
2023/05/20 07:17:50;;;;;;;;;;;;;;;17.44;54.79;100683.75;4128958;28;20046;-63
2023/05/20 07:19:53;;;;;;;7.38;4.00;;;;;;;17.41;54.81;100686.44;4129639;28;19926;-63
2023/05/20 07:21:56;;;;;;;7.38;4.57;;;;;;;17.30;55.02;100688.28;4128081;28;20404;-63
2023/05/20 07:24:23;;;;;;;6.13;4.30;;;;;;;17.22;55.17;100690.13;4145027;28;20073;-63
2023/05/20 07:26:27;;;;;;;9.90;4.53;;;;;;;17.16;55.19;100693.69;4143458;28;20129;-63
2023/05/20 07:28:30;;;;;;;7.68;3.90;;;;;;;17.09;55.80;100689.38;4142913;28;20062;-63
2023/05/20 07:30:33;;;;;;;7.25;4.18;;;;;;;17.46;55.18;100683.75;4125984;28;20046;-63
2023/05/20 07:32:54;;;;;;;7.72;4.43;;;;;;;17.73;54.67;100671.19;4142512;28;20556;-63
2023/05/20 07:34:57;;;;;;;7.65;4.60;;;;;;;18.03;54.28;100674.34;4144833;28;20042;-63
2023/05/20 07:37:00;;;;;;;6.63;4.20;;;;;;;18.31;53.16;100659.03;4125055;28;20046;-63
2023/05/20 07:39:03;;;;;;;6.38;4.47;;;;;;;18.41;52.90;100671.19;4145225;28;20092;-63
2023/05/20 07:41:14;;;;;;;9.55;4.68;;;;;;;18.65;51.54;100662.03;4124802;28;20057;-63
2023/05/20 07:43:18;;;;;;;10.23;4.53;;;;;;;18.69;52.07;100668.13;4144973;28;20485;-63
2023/05/20 07:45:21;;;;;;;;;;;;;;;18.64;52.87;100672.59;4106627;28;20109;-63
2023/05/20 07:47:25;;;;;;;6.03;4.10;;;;;;;18.66;53.11;100661.16;4126064;28;20013;-62
2023/05/20 07:49:28;;;;;;;7.68;4.43;;;;;;;18.89;51.49;100661.69;4111992;28;20496;-63
2023/05/20 07:51:31;;;;;;;7.60;3.78;;;;;;;19.01;51.50;100667.63;4128658;28;20089;-63
2023/05/20 07:53:35;;;;;;;6.30;4.97;;;;;;;18.98;52.19;100653.63;4130301;28;20066;-63
2023/05/20 07:55:38;;;;;;;6.38;4.72;;;;;;;19.04;51.15;100656.16;4125090;28;20061;-63
2023/05/20 07:57:41;;;;;;;8.93;4.40;;;;;;;19.09;50.94;100664.84;4142843;28;20496;-62
2023/05/20 07:59:48;;;;;;;10.40;4.63;;;;;;;19.05;50.78;100657.03;4143546;28;20092;-63
2023/05/20 08:01:51;;;;;;;7.60;4.20;;;;;;;18.99;51.23;100658.00;4141744;28;20061;-63
2023/05/20 08:03:55;;;;;;;6.68;4.60;;;;;;;19.05;50.78;100655.25;4139150;28;20463;-64
2023/05/20 08:06:00;;;;;;;6.45;3.60;;;;;;;18.97;51.42;100650.13;4141793;28;20061;-63
2023/05/20 08:08:13;;;;;;;6.68;4.15;;;;;;;19.11;51.35;100649.88;4123757;28;20346;-61
2023/05/20 08:10:32;;;;;;;6.22;4.30;;;;;;;19.22;51.38;100654.09;4128358;28;20374;-62
2023/05/20 08:12:35;;;;;;;6.68;4.55;;;;;;;19.33;50.85;100652.09;4126642;28;20098;-63
2023/05/20 08:14:38;;;;;;;6.68;4.15;;;;;;;19.31;50.86;100651.28;4128915;28;20113;-62
2023/05/20 08:16:43;;;;;;;6.97;4.50;;;;;;;19.32;50.93;100639.84;4130375;28;20161;-62
2023/05/20 08:18:46;;;;;;;7.30;4.68;;;;;;;19.37;50.63;100648.53;4129268;28;20038;-62
2023/05/20 08:20:49;;;;;;;9.20;4.80;;;;;;;19.35;49.90;100645.91;4127543;28;20038;-62
2023/05/20 08:22:53;;;;;;;7.45;4.70;;;;;;;19.31;50.66;100641.59;4139269;28;20444;-63
2023/05/20 08:24:56;;;;;;;8.93;4.55;;;;;;;19.35;50.48;100643.28;4126868;28;20042;-62
2023/05/20 08:26:59;;;;;;;8.60;4.45;;;;;;;19.51;50.79;100649.13;4129599;28;20041;-63
2023/05/20 08:29:02;;;;;;;8.35;4.88;;;;;;;19.51;50.14;100646.50;4113644;28;20042;-63
2023/05/20 08:31:05;;;;;;;8.48;4.82;;;;;;;19.56;50.22;100645.53;4127035;28;20041;-63
2023/05/20 08:33:11;;;;;;;6.72;4.80;;;;;;;19.51;49.50;100643.00;4128215;28;20042;-63
2023/05/20 08:35:14;;;;;;;7.03;4.38;;;;;;;19.61;49.69;100651.56;4128441;28;20535;-62
2023/05/20 08:37:17;;;;;;;6.40;4.20;;;;;;;19.57;49.60;100649.91;4113401;28;20039;-62
2023/05/20 08:39:22;;;;;;;6.90;4.20;;;;;;;19.52;49.97;100644.72;4125038;28;20046;-62
2023/05/20 08:41:26;;;;;;;5.90;4.43;;;;;;;19.56;50.61;100645.53;4126621;28;20079;-62
2023/05/20 08:43:31;;;;;;;6.50;4.22;;;;;;;19.67;50.55;100641.78;4142168;28;20084;-62
2023/05/20 08:45:38;;;;;;;7.88;5.15;;;;;;;19.81;49.94;100636.22;4130690;28;20396;-62
2023/05/20 08:47:46;;;;;;;6.68;4.53;;;;;;;19.91;49.73;100638.69;4132329;28;20069;-62
2023/05/20 08:49:52;;;;;;;5.82;4.35;;;;;;;19.90;49.26;100643.06;4152586;28;20038;-62
2023/05/20 08:51:55;;;;;;;6.78;4.30;;;;;;;19.93;49.98;100642.16;4127630;28;20441;-62
2023/05/20 08:53:59;;;;;;;7.25;4.78;;;;;;;20.12;49.24;100640.88;4131267;28;20043;-61
2023/05/20 08:56:02;;;;;;;8.32;4.85;;;;;;;20.17;49.49;100636.34;4130870;28;20053;-62
2023/05/20 08:58:05;;;;;;;7.22;4.97;;;;;;;20.23;48.82;100630.91;4130756;28;20038;-62
2023/05/20 09:00:15;;;;;;;7.72;4.47;;;;;;;20.37;48.79;100632.34;4146382;28;20397;-63
2023/05/20 09:02:18;;;;;;;11.05;5.13;;;;;;;20.44;48.65;100620.72;4129574;28;20036;-63
2023/05/20 09:04:21;;;;;;;7.53;4.68;;;;;;;20.52;48.72;100615.28;4129270;28;20046;-62
2023/05/20 09:06:25;;;;;;;7.50;4.90;;;;;;;20.53;48.79;100612.59;4130982;28;20046;-63
2023/05/20 09:08:31;;;;;;;7.93;5.47;;;;;;;20.61;48.45;100607.13;4127568;28;20401;-64
2023/05/20 09:10:34;;;;;;;10.70;5.63;;;;;;;20.65;48.39;100598.22;4129776;28;20042;-64
2023/05/20 09:12:38;;;;;;;6.70;4.80;;;;;;;20.74;47.76;100600.66;4131198;28;20034;-64
2023/05/20 09:14:40;;;;;;;7.40;4.78;;;;;;;20.70;47.95;100592.84;4131073;28;20038;-63
2023/05/20 09:16:43;;;;;;;11.50;5.72;;;;;;;20.90;48.26;100601.13;4131233;28;20039;-63
2023/05/20 09:18:46;;;;;;;8.27;4.75;;;;;;;21.05;47.95;100598.97;4131225;28;20038;-64
2023/05/20 09:20:51;;;;;;;7.50;4.35;;;;;;;21.09;48.11;100596.22;4141852;28;20958;-63
2023/05/20 09:22:59;;;;;;;8.07;5.78;;;;;;;21.11;48.17;100601.44;4127378;28;20035;-63
2023/05/20 09:25:02;;;;;;;9.95;5.93;;;;;;;21.33;47.43;100600.88;4131951;28;20054;-63
2023/05/20 09:27:05;;;;;;;6.25;4.75;;;;;;;21.21;47.86;100600.28;4144119;28;20046;-64
2023/05/20 09:29:08;;;;;;;7.43;4.65;;;;;;;21.28;48.03;100596.56;4129596;28;20407;-65
2023/05/20 09:31:13;;;;;;;8.73;5.07;;;;;;;21.51;47.37;100605.66;4127638;28;20129;-64
2023/05/20 09:33:16;;;;;;;8.43;5.22;;;;;;;21.51;47.10;100600.38;4133617;28;20409;-64
2023/05/20 09:35:20;;;;;;;7.70;5.22;;;;;;;21.60;46.18;100596.59;4130899;28;20050;-64
2023/05/20 09:37:25;;;;;;;7.73;4.37;;;;;;;21.67;45.27;100610.50;4133267;28;20496;-64